createdAt,value
2018-11-04T00:00:24.856Z,227.60
2018-11-04T00:02:53.993Z,247.53
2018-11-04T00:05:22.943Z,248.80
2018-11-04T00:07:52.414Z,256.73
2018-11-04T00:10:21.366Z,230.80
2018-11-04T00:12:50.548Z,203.00
2018-11-04T00:15:19.536Z,192.97
2018-11-04T00:17:48.534Z,187.27
2018-11-04T00:20:17.706Z,165.33
2018-11-04T00:22:46.592Z,145.10
2018-11-04T00:25:15.612Z,108.07
2018-11-04T00:27:44.671Z,107.77
2018-11-04T00:30:15.543Z,106.07
2018-11-04T00:32:44.883Z,101.10
2018-11-04T00:35:13.844Z,103.57
2018-11-04T00:37:42.798Z,97.63
2018-11-04T00:40:11.801Z,76.67
2018-11-04T00:42:40.774Z,71.40
2018-11-04T00:45:10.300Z,70.17
2018-11-04T00:47:39.984Z,75.77
2018-11-04T00:50:12.755Z,74.40
2018-11-04T00:52:42.138Z,73.63
2018-11-04T00:55:11.683Z,70.50
2018-11-04T00:57:40.946Z,78.00
2018-11-04T01:00:18.413Z,70.13
2018-11-04T01:02:49.179Z,66.20
2018-11-04T01:05:18.913Z,71.63
2018-11-04T01:07:47.901Z,78.93
2018-11-04T01:10:16.929Z,73.30
2018-11-04T01:12:46.298Z,68.40
2018-11-04T01:15:15.954Z,68.70
2018-11-04T01:17:45.033Z,72.20
2018-11-04T01:20:16.399Z,64.00
2018-11-04T01:22:45.805Z,68.67
2018-11-04T01:25:14.850Z,71.60
2018-11-04T01:27:43.828Z,83.90
2018-11-04T01:30:14.450Z,93.77
2018-11-04T01:32:43.926Z,92.20
2018-11-04T01:35:12.920Z,92.47
2018-11-04T01:37:42.685Z,99.93
2018-11-04T01:40:11.840Z,95.67
2018-11-04T01:42:40.998Z,98.10
2018-11-04T01:45:11.697Z,92.93
2018-11-04T01:47:40.933Z,108.30
2018-11-04T01:50:13.175Z,111.20
2018-11-04T01:52:42.279Z,118.57
2018-11-04T01:55:12.373Z,104.00
2018-11-04T01:57:41.545Z,101.73
2018-11-04T02:00:15.031Z,80.60
2018-11-04T02:02:44.753Z,74.63
2018-11-04T02:05:14.152Z,66.77
2018-11-04T02:07:43.277Z,65.97
2018-11-04T02:10:13.416Z,74.73
2018-11-04T02:12:42.417Z,64.33
2018-11-04T02:15:12.750Z,59.87
2018-11-04T02:17:41.923Z,60.50
2018-11-04T02:20:12.373Z,60.43
2018-11-04T02:22:41.863Z,63.80
2018-11-04T02:25:12.173Z,61.80
2018-11-04T02:27:41.503Z,62.27
2018-11-04T02:30:14.486Z,57.80
2018-11-04T02:32:44.454Z,56.03
2018-11-04T02:35:14.328Z,59.80
2018-11-04T02:37:43.321Z,63.30
2018-11-04T02:40:12.826Z,54.80
2018-11-04T02:42:41.887Z,53.90
2018-11-04T02:45:11.217Z,58.47
2018-11-04T02:47:40.798Z,54.00
2018-11-04T02:50:10.531Z,55.17
2018-11-04T02:52:39.906Z,53.63
2018-11-04T02:55:09.373Z,55.60
2018-11-04T02:57:38.604Z,52.03
2018-11-04T03:00:10.152Z,50.17
2018-11-04T03:02:39.191Z,46.87
2018-11-04T03:05:08.699Z,55.37
2018-11-04T03:07:37.760Z,45.67
2018-11-04T03:10:06.987Z,48.17
2018-11-04T03:12:35.965Z,47.17
2018-11-04T03:15:04.932Z,47.10
2018-11-04T03:17:34.009Z,48.87
2018-11-04T03:20:02.974Z,49.17
2018-11-04T03:22:32.092Z,50.33
2018-11-04T03:25:01.750Z,46.23
2018-11-04T03:27:30.742Z,51.40
2018-11-04T03:29:59.745Z,48.90
2018-11-04T03:32:28.806Z,50.47
2018-11-04T03:34:57.700Z,46.83
2018-11-04T03:37:26.725Z,44.13
2018-11-04T03:39:55.859Z,44.97
2018-11-04T03:42:24.841Z,43.20
2018-11-04T03:44:54.596Z,43.20
2018-11-04T03:47:24.028Z,44.60
2018-11-04T03:49:53.629Z,43.00
2018-11-04T03:52:22.584Z,45.77
2018-11-04T03:54:51.646Z,34.93
2018-11-04T03:57:20.713Z,37.20
2018-11-04T03:59:49.836Z,39.40
2018-11-04T04:02:19.063Z,34.20
2018-11-04T04:04:48.281Z,37.97
2018-11-04T04:07:17.303Z,34.83
2018-11-04T04:09:46.469Z,33.37
2018-11-04T04:12:16.178Z,31.93
2018-11-04T04:14:46.331Z,38.43
2018-11-04T04:17:15.399Z,32.60
2018-11-04T04:19:46.410Z,36.70
2018-11-04T04:22:15.455Z,38.90
2018-11-04T04:24:44.448Z,27.77
2018-11-04T04:27:13.500Z,27.17
2018-11-04T04:29:42.613Z,28.20
2018-11-04T04:32:11.572Z,34.77
2018-11-04T04:34:40.727Z,33.67
2018-11-04T04:37:10.541Z,29.73
2018-11-04T04:39:39.477Z,29.97
2018-11-04T04:42:08.527Z,30.27
2018-11-04T04:44:38.153Z,28.63
2018-11-04T04:47:07.256Z,31.67
2018-11-04T04:49:41.259Z,28.57
2018-11-04T04:52:12.138Z,27.23
2018-11-04T04:54:41.478Z,26.43
2018-11-04T04:57:12.134Z,30.40
2018-11-04T04:59:43.543Z,26.00
2018-11-04T05:02:14.059Z,28.03
2018-11-04T05:04:43.669Z,27.20
2018-11-04T05:07:14.160Z,23.10
2018-11-04T05:09:43.598Z,26.27
2018-11-04T05:12:12.980Z,22.90
2018-11-04T05:14:42.172Z,28.17
2018-11-04T05:17:11.331Z,32.57
2018-11-04T05:19:40.599Z,24.57
2018-11-04T05:22:09.851Z,22.10
2018-11-04T05:24:39.073Z,22.67
2018-11-04T05:27:08.178Z,24.00
2018-11-04T05:29:37.356Z,18.90
2018-11-04T05:32:06.591Z,22.10
2018-11-04T05:34:35.802Z,21.03
2018-11-04T05:37:05.268Z,20.23
2018-11-04T05:39:34.637Z,19.93
2018-11-04T05:42:04.241Z,21.00
2018-11-04T05:44:33.199Z,20.97
2018-11-04T05:47:02.226Z,21.53
2018-11-04T05:49:31.280Z,20.00
2018-11-04T05:52:00.389Z,20.30
2018-11-04T05:54:29.460Z,22.27
2018-11-04T05:56:58.607Z,21.97
2018-11-04T05:59:27.692Z,25.67
2018-11-04T06:02:01.084Z,18.60
2018-11-04T06:04:30.088Z,21.77
2018-11-04T06:06:59.012Z,19.70
2018-11-04T06:09:28.049Z,15.90
2018-11-04T06:11:57.200Z,17.10
2018-11-04T06:14:26.226Z,22.60
2018-11-04T06:16:55.265Z,20.33
2018-11-04T06:19:24.323Z,20.37
2018-11-04T06:21:53.934Z,18.80
2018-11-04T06:24:23.157Z,16.60
2018-11-04T06:26:52.330Z,22.63
2018-11-04T06:29:21.754Z,18.77
2018-11-04T06:31:51.035Z,15.83
2018-11-04T06:34:20.204Z,19.40
2018-11-04T06:36:49.294Z,14.10
2018-11-04T06:39:18.349Z,15.00
2018-11-04T06:41:48.408Z,18.00
2018-11-04T06:44:17.477Z,9.87
2018-11-04T06:46:48.278Z,15.33
2018-11-04T06:49:17.303Z,16.53
2018-11-04T06:51:47.240Z,15.13
2018-11-04T06:54:17.297Z,17.27
2018-11-04T06:56:47.210Z,22.60
2018-11-04T06:59:16.409Z,21.53
2018-11-04T07:01:45.567Z,15.70
2018-11-04T07:04:21.306Z,18.03
2018-11-04T07:06:50.574Z,15.90
2018-11-04T07:09:19.551Z,13.00
2018-11-04T07:11:49.837Z,14.17
2018-11-04T07:14:19.527Z,16.10
2018-11-04T07:16:48.569Z,19.10
2018-11-04T07:19:17.737Z,13.03
2018-11-04T07:21:46.891Z,16.97
2018-11-04T07:24:16.842Z,14.63
2018-11-04T07:26:45.887Z,15.57
2018-11-04T07:29:15.002Z,14.73
2018-11-04T07:31:44.049Z,17.50
2018-11-04T07:34:13.173Z,15.70
2018-11-04T07:36:42.239Z,14.77
2018-11-04T07:39:12.896Z,17.70
2018-11-04T07:41:41.967Z,8.67
2018-11-04T07:44:11.156Z,17.57
2018-11-04T07:46:40.201Z,15.43
2018-11-04T07:49:09.362Z,12.00
2018-11-04T07:51:38.647Z,10.23
2018-11-04T07:54:08.031Z,8.23
2018-11-04T07:56:37.174Z,9.87
2018-11-04T07:59:06.665Z,9.90
2018-11-04T08:01:35.805Z,10.60
2018-11-04T08:04:05.197Z,12.67
2018-11-04T08:06:34.387Z,11.17
2018-11-04T08:09:04.224Z,14.30
2018-11-04T08:11:33.373Z,10.50
2018-11-04T08:14:02.466Z,14.70
2018-11-04T08:16:31.894Z,14.33
2018-11-04T08:19:01.744Z,17.07
2018-11-04T08:21:31.066Z,12.03
2018-11-04T08:24:00.039Z,16.97
2018-11-04T08:26:29.159Z,11.07
2018-11-04T08:28:59.214Z,14.20
2018-11-04T08:31:28.319Z,12.07
2018-11-04T08:33:57.427Z,12.63
2018-11-04T08:36:26.669Z,13.33
2018-11-04T08:38:55.805Z,15.00
2018-11-04T08:41:24.928Z,13.90
2018-11-04T08:43:54.157Z,13.60
2018-11-04T08:46:26.741Z,11.37
2018-11-04T08:48:56.090Z,17.37
2018-11-04T08:51:25.270Z,11.03
2018-11-04T08:53:54.284Z,14.27
2018-11-04T08:56:23.538Z,10.90
2018-11-04T08:58:52.645Z,12.67
2018-11-04T09:01:21.784Z,12.63
2018-11-04T09:03:50.995Z,17.23
2018-11-04T09:06:19.992Z,20.13
2018-11-04T09:08:49.275Z,14.43
2018-11-04T09:11:18.339Z,16.67
2018-11-04T09:13:47.446Z,15.53
2018-11-04T09:16:16.710Z,19.20
2018-11-04T09:18:52.153Z,17.67
2018-11-04T09:21:21.118Z,15.47
2018-11-04T09:23:50.321Z,20.93
2018-11-04T09:26:19.468Z,13.40
2018-11-04T09:28:48.478Z,15.23
2018-11-04T09:31:17.736Z,17.90
2018-11-04T09:33:46.828Z,17.60
2018-11-04T09:36:16.193Z,19.50
2018-11-04T09:38:45.687Z,16.80
2018-11-04T09:41:14.964Z,23.10
2018-11-04T09:43:44.810Z,18.73
2018-11-04T09:46:14.000Z,19.03
2018-11-04T09:48:44.230Z,22.23
2018-11-04T09:51:13.472Z,18.47
2018-11-04T09:53:42.628Z,19.77
2018-11-04T09:56:11.808Z,23.90
2018-11-04T09:58:41.644Z,18.50
2018-11-04T10:01:17.067Z,23.80
2018-11-04T10:03:46.051Z,20.23
2018-11-04T10:06:15.259Z,22.87
2018-11-04T10:08:44.413Z,25.20
2018-11-04T10:11:13.545Z,25.27
2018-11-04T10:13:42.691Z,21.63
2018-11-04T10:16:12.334Z,25.40
2018-11-04T10:18:41.540Z,22.87
2018-11-04T10:21:10.877Z,23.83
2018-11-04T10:23:40.358Z,22.93
2018-11-04T10:26:09.695Z,26.67
2018-11-04T10:28:43.969Z,25.03
2018-11-04T10:31:13.023Z,22.27
2018-11-04T10:33:42.578Z,32.87
2018-11-04T10:36:11.749Z,27.60
2018-11-04T10:38:40.964Z,24.90
2018-11-04T10:41:10.300Z,30.43
2018-11-04T10:43:40.111Z,29.27
2018-11-04T10:46:09.050Z,26.87
2018-11-04T10:48:38.061Z,25.70
2018-11-04T10:51:07.288Z,29.33
2018-11-04T10:53:36.260Z,28.50
2018-11-04T10:56:05.388Z,25.20
2018-11-04T10:58:34.343Z,34.53
2018-11-04T11:01:10.811Z,32.43
2018-11-04T11:03:40.276Z,29.90
2018-11-04T11:06:09.559Z,34.23
2018-11-04T11:08:38.722Z,32.83
2018-11-04T11:11:14.111Z,31.23
2018-11-04T11:13:43.185Z,29.57
2018-11-04T11:16:12.167Z,37.23
2018-11-04T11:18:41.231Z,39.40
2018-11-04T11:21:10.343Z,29.47
2018-11-04T11:23:39.692Z,36.40
2018-11-04T11:26:08.507Z,31.23
2018-11-04T11:28:37.545Z,32.77
2018-11-04T11:31:07.777Z,38.10
2018-11-04T11:33:42.755Z,35.50
2018-11-04T11:36:21.578Z,39.03
2018-11-04T11:38:50.683Z,34.70
2018-11-04T11:41:19.882Z,36.60
2018-11-04T11:43:49.052Z,34.60
2018-11-04T11:46:24.790Z,50.87
2018-11-04T11:48:54.048Z,40.00
2018-11-04T11:51:23.093Z,36.33
2018-11-04T11:53:52.023Z,39.10
2018-11-04T11:56:21.203Z,43.87
2018-11-04T11:58:50.441Z,37.77
2018-11-04T12:01:19.832Z,37.37
2018-11-04T12:03:48.701Z,39.43
2018-11-04T12:06:17.718Z,38.67
2018-11-04T12:08:46.693Z,40.30
2018-11-04T12:11:15.586Z,44.40
2018-11-04T12:13:44.641Z,40.07
2018-11-04T12:16:13.673Z,36.17
2018-11-04T12:18:42.671Z,36.03
2018-11-04T12:21:11.687Z,41.10
2018-11-04T12:23:40.701Z,41.37
2018-11-04T12:26:09.638Z,41.30
2018-11-04T12:28:38.573Z,39.33
2018-11-04T12:31:07.538Z,42.07
2018-11-04T12:33:36.680Z,38.23
2018-11-04T12:36:05.621Z,37.20
2018-11-04T12:38:34.671Z,36.30
2018-11-04T12:41:03.598Z,41.90
2018-11-04T12:43:32.703Z,41.93
2018-11-04T12:46:01.766Z,37.40
2018-11-04T12:48:30.829Z,42.87
2018-11-04T12:50:59.878Z,42.23
2018-11-04T12:53:28.977Z,38.47
2018-11-04T12:55:57.997Z,39.37
2018-11-04T12:58:30.051Z,40.47
2018-11-04T13:00:59.081Z,38.10
2018-11-04T13:03:28.360Z,37.43
2018-11-04T13:05:57.468Z,42.63
2018-11-04T13:08:26.570Z,36.20
2018-11-04T13:10:55.627Z,40.87
2018-11-04T13:13:25.457Z,41.03
2018-11-04T13:15:56.018Z,34.60
2018-11-04T13:18:25.244Z,42.27
2018-11-04T13:20:54.588Z,39.37
2018-11-04T13:23:23.611Z,36.90
2018-11-04T13:25:52.783Z,36.97
2018-11-04T13:28:22.268Z,40.07
2018-11-04T13:30:55.981Z,36.80
2018-11-04T13:33:25.446Z,38.77
2018-11-04T13:35:54.587Z,38.07
2018-11-04T13:38:34.141Z,37.30
2018-11-04T13:41:03.394Z,33.37
2018-11-04T13:43:33.338Z,36.37
2018-11-04T13:46:02.534Z,33.77
2018-11-04T13:48:31.665Z,40.70
2018-11-04T13:51:00.842Z,34.20
2018-11-04T13:53:30.128Z,35.70
2018-11-04T13:55:59.106Z,33.20
2018-11-04T13:58:28.166Z,35.07
2018-11-04T14:00:57.095Z,33.63
2018-11-04T14:03:26.058Z,36.37
2018-11-04T14:05:55.095Z,35.40
2018-11-04T14:08:24.005Z,37.40
2018-11-04T14:10:52.948Z,41.43
2018-11-04T14:13:22.044Z,46.10
2018-11-04T14:15:51.085Z,48.60
2018-11-04T14:18:20.533Z,48.53
2018-11-04T14:20:49.504Z,39.63
2018-11-04T14:23:18.483Z,40.17
2018-11-04T14:25:47.412Z,41.50
2018-11-04T14:28:16.586Z,37.73
2018-11-04T14:30:45.537Z,38.70
2018-11-04T14:33:14.471Z,42.23
2018-11-04T14:35:43.619Z,43.60
2018-11-04T14:38:12.667Z,42.30
2018-11-04T14:40:41.698Z,40.63
2018-11-04T14:43:10.942Z,46.93
2018-11-04T14:45:40.041Z,42.67
2018-11-04T14:48:09.149Z,43.17
2018-11-04T14:50:38.446Z,56.13
2018-11-04T14:53:07.718Z,61.03
2018-11-04T14:55:37.774Z,63.80
2018-11-04T14:58:06.942Z,54.13
2018-11-04T15:00:37.063Z,49.37
2018-11-04T15:03:07.861Z,42.23
2018-11-04T15:05:37.270Z,40.07
2018-11-04T15:08:06.435Z,38.20
2018-11-04T15:10:35.699Z,38.57
2018-11-04T15:13:05.033Z,42.60
2018-11-04T15:15:34.379Z,41.40
2018-11-04T15:18:03.826Z,39.90
2018-11-04T15:20:33.469Z,39.03
2018-11-04T15:23:02.634Z,40.40
2018-11-04T15:25:31.910Z,39.43
2018-11-04T15:28:01.026Z,39.90
2018-11-04T15:30:30.238Z,36.40
2018-11-04T15:32:59.391Z,36.13
2018-11-04T15:35:28.481Z,40.20
2018-11-04T15:37:57.622Z,48.80
2018-11-04T15:40:26.805Z,52.07
2018-11-04T15:42:56.328Z,47.67
2018-11-04T15:45:26.404Z,53.77
2018-11-04T15:48:03.132Z,49.07
2018-11-04T15:50:42.467Z,50.43
2018-11-04T15:53:17.995Z,61.97
2018-11-04T15:55:47.295Z,60.17
2018-11-04T15:58:16.533Z,62.47
2018-11-04T16:13:48.426Z,57.43
2018-11-04T16:16:18.429Z,60.67
2018-11-04T16:18:47.884Z,64.70
2018-11-04T16:21:17.008Z,48.93
2018-11-04T16:23:51.755Z,45.47
2018-11-04T16:32:48.448Z,43.50
2018-11-04T16:35:25.671Z,42.53
2018-11-04T16:37:56.061Z,34.70
2018-11-04T16:40:26.732Z,41.40
2018-11-04T16:42:56.548Z,42.50
2018-11-04T16:45:27.842Z,37.50
2018-11-04T16:47:57.495Z,44.07
2018-11-04T16:50:27.282Z,44.53
2018-11-04T16:52:57.292Z,44.63
2018-11-04T16:55:26.508Z,39.20
2018-11-04T16:57:57.455Z,42.27
2018-11-04T17:00:26.527Z,56.03
2018-11-04T17:02:55.407Z,52.90
2018-11-04T17:05:25.812Z,49.13
2018-11-04T17:07:55.654Z,47.63
2018-11-04T17:10:24.775Z,51.33
2018-11-04T17:12:53.799Z,51.40
2018-11-04T17:15:22.983Z,53.80
2018-11-04T17:17:52.079Z,58.23
2018-11-04T17:20:21.260Z,65.73
2018-11-04T17:22:50.352Z,61.47
2018-11-04T17:25:19.431Z,66.10
2018-11-04T17:27:48.434Z,58.30
2018-11-04T17:30:18.596Z,60.17
2018-11-04T17:32:48.112Z,67.80
2018-11-04T17:35:17.822Z,63.90
2018-11-04T17:37:47.317Z,64.07
2018-11-04T17:40:17.285Z,64.50
2018-11-04T17:42:46.472Z,58.53
2018-11-04T17:45:16.624Z,47.47
2018-11-04T17:47:46.298Z,51.53
2018-11-04T17:50:17.598Z,43.40
2018-11-04T17:52:46.722Z,37.90
2018-11-04T17:55:16.131Z,36.33
2018-11-04T17:57:45.649Z,36.23
2018-11-04T18:00:16.229Z,33.53
2018-11-04T18:02:45.802Z,31.27
2018-11-04T18:05:15.455Z,33.07
2018-11-04T18:07:45.301Z,33.73
2018-11-04T18:10:15.508Z,34.93
2018-11-04T18:12:45.032Z,32.03
2018-11-04T18:15:14.789Z,30.63
2018-11-04T18:17:44.720Z,32.90
2018-11-04T18:20:13.946Z,30.97
2018-11-04T18:22:43.560Z,36.27
2018-11-04T18:25:16.163Z,28.57
2018-11-04T18:27:45.532Z,32.43
2018-11-04T18:30:15.906Z,36.37
2018-11-04T18:32:45.533Z,32.57
2018-11-04T18:35:14.693Z,35.50
2018-11-04T18:37:56.076Z,34.73
2018-11-04T18:40:29.803Z,36.20
2018-11-04T18:42:59.210Z,38.67
2018-11-04T18:45:28.501Z,42.63
2018-11-04T18:48:12.534Z,38.70
2018-11-04T18:50:42.323Z,42.37
2018-11-04T18:53:11.746Z,43.87
2018-11-04T18:55:42.512Z,45.03
2018-11-04T18:59:29.606Z,45.37
2018-11-04T19:02:12.833Z,43.37
2018-11-04T19:04:42.716Z,42.40
2018-11-04T19:07:11.956Z,42.20
2018-11-04T19:09:42.481Z,45.93
2018-11-04T19:12:31.433Z,46.60
2018-11-04T19:15:02.767Z,46.63
2018-11-04T19:17:32.385Z,40.93
2018-11-04T19:20:01.742Z,43.33
2018-11-04T19:22:31.078Z,51.47
2018-11-04T19:25:00.408Z,43.87
2018-11-04T19:27:29.442Z,46.63
2018-11-04T19:29:58.834Z,47.93
2018-11-04T19:32:27.967Z,50.50
2018-11-04T19:34:57.877Z,47.87
2018-11-04T19:37:27.489Z,48.13
2018-11-04T19:39:56.615Z,46.00
2018-11-04T19:42:35.099Z,42.50
2018-11-04T19:45:18.328Z,46.13
2018-11-04T19:48:10.147Z,42.80
2018-11-04T19:50:42.273Z,42.73
2018-11-04T19:53:14.444Z,49.67
2018-11-04T19:55:44.797Z,43.10
2018-11-04T19:58:18.387Z,43.23
2018-11-04T20:00:48.954Z,53.73
2018-11-04T20:03:18.188Z,41.60
2018-11-04T20:05:47.570Z,45.43
2018-11-04T20:08:16.793Z,44.53
2018-11-04T20:10:45.985Z,47.70
2018-11-04T20:13:21.253Z,46.93
2018-11-04T20:15:50.840Z,48.57
2018-11-04T20:18:26.539Z,53.20
2018-11-04T20:20:56.064Z,47.97
2018-11-04T20:23:25.253Z,47.47
2018-11-04T20:26:02.231Z,44.60
2018-11-04T20:28:34.353Z,50.23
2018-11-04T20:31:03.627Z,44.10
2018-11-04T20:33:34.339Z,46.23
2018-11-04T20:36:05.079Z,50.37
2018-11-04T20:38:42.772Z,45.37
2018-11-04T20:41:17.097Z,50.13
2018-11-04T20:43:46.544Z,46.93
2018-11-04T20:46:15.627Z,46.30
2018-11-04T20:48:49.971Z,49.43
2018-11-04T20:51:19.075Z,49.93
2018-11-04T20:53:48.156Z,49.03
2018-11-04T20:56:22.494Z,50.00
2018-11-04T20:58:51.548Z,49.07
2018-11-04T21:01:20.604Z,48.70
2018-11-04T21:03:50.189Z,49.83
2018-11-04T21:06:19.253Z,45.53
2018-11-04T21:08:48.422Z,51.83
2018-11-04T21:11:17.576Z,55.00
2018-11-04T21:13:47.883Z,56.03
2018-11-04T21:16:17.043Z,58.23
2018-11-04T21:18:47.447Z,55.03
2018-11-04T21:21:16.565Z,53.63
2018-11-04T21:23:45.796Z,52.60
2018-11-04T21:26:14.821Z,55.27
2018-11-04T21:28:44.234Z,54.07
2018-11-04T21:31:13.415Z,53.03
2018-11-04T21:33:42.605Z,49.20
2018-11-04T21:36:11.762Z,54.27
2018-11-04T21:38:41.937Z,50.97
2018-11-04T21:41:11.146Z,59.03
2018-11-04T21:43:40.603Z,52.43
2018-11-04T21:46:09.489Z,51.30
2018-11-04T21:48:39.488Z,52.87
2018-11-04T21:51:08.752Z,56.70
2018-11-04T21:53:37.806Z,56.70
2018-11-04T21:56:08.089Z,50.87
2018-11-04T21:58:37.595Z,53.43
2018-11-04T22:01:07.462Z,53.40
2018-11-04T22:03:37.633Z,57.00
2018-11-04T22:06:06.939Z,54.77
2018-11-04T22:08:36.150Z,51.57
2018-11-04T22:11:05.221Z,54.60
2018-11-04T22:13:34.387Z,57.53
2018-11-04T22:16:03.652Z,54.83
2018-11-04T22:18:32.668Z,66.30
2018-11-04T22:21:01.856Z,58.20
2018-11-04T22:23:31.004Z,60.00
2018-11-04T22:25:59.910Z,55.13
2018-11-04T22:28:29.004Z,58.20
2018-11-04T22:30:57.990Z,55.80
2018-11-04T22:33:26.944Z,61.37
2018-11-04T22:35:56.043Z,57.23
2018-11-04T22:38:25.039Z,56.27
2018-11-04T22:40:54.108Z,53.50
2018-11-04T22:43:23.084Z,54.13
2018-11-04T22:45:52.069Z,54.23
2018-11-04T22:48:21.140Z,54.00
2018-11-04T22:50:50.214Z,50.23
2018-11-04T22:53:19.130Z,53.80
2018-11-04T22:55:48.113Z,51.10
2018-11-04T22:58:17.118Z,51.10
2018-11-04T23:00:47.049Z,47.93
2018-11-04T23:03:16.026Z,53.00
2018-11-04T23:05:45.036Z,54.37
2018-11-04T23:08:13.985Z,48.23
2018-11-04T23:10:43.044Z,47.90
2018-11-04T23:13:12.859Z,52.40
2018-11-04T23:15:41.761Z,51.23
2018-11-04T23:18:10.738Z,55.77
2018-11-04T23:20:39.733Z,54.33
2018-11-04T23:23:09.474Z,54.07
2018-11-04T23:25:38.520Z,49.03
2018-11-04T23:28:07.822Z,47.20
2018-11-04T23:30:36.864Z,49.40
2018-11-04T23:33:05.886Z,50.43
2018-11-04T23:35:34.987Z,52.50
2018-11-04T23:38:04.018Z,47.20
2018-11-04T23:40:34.156Z,43.87
2018-11-04T23:43:03.184Z,49.67
2018-11-04T23:45:32.248Z,44.43
2018-11-04T23:48:01.179Z,47.67
2018-11-04T23:50:30.298Z,43.83
2018-11-04T23:53:00.161Z,49.93
2018-11-04T23:55:29.256Z,48.90
2018-11-04T23:57:58.384Z,48.37
